sensor_id;sensor_type;location;lat;lon;timestamp;P1;durP1;ratioP1;P2;durP2;ratioP2
34505;SDS011;20748;42.632;23.198;2023-04-25T00:01:10;6.13;;;2.72;;
34505;SDS011;20748;42.632;23.198;2023-04-25T00:03:44;5.95;;;3.03;;
34505;SDS011;20748;42.632;23.198;2023-04-25T00:06:17;4.93;;;2.28;;
34505;SDS011;20748;42.632;23.198;2023-04-25T00:08:49;4.97;;;3.15;;
34505;SDS011;20748;42.632;23.198;2023-04-25T00:11:22;4.90;;;2.17;;
34505;SDS011;20748;42.632;23.198;2023-04-25T00:13:55;6.25;;;2.67;;
34505;SDS011;20748;42.632;23.198;2023-04-25T00:16:28;4.80;;;2.00;;
34505;SDS011;20748;42.632;23.198;2023-04-25T00:19:04;3.90;;;1.73;;
34505;SDS011;20748;42.632;23.198;2023-04-25T00:21:37;3.55;;;1.65;;
34505;SDS011;20748;42.632;23.198;2023-04-25T00:24:11;5.75;;;3.13;;
34505;SDS011;20748;42.632;23.198;2023-04-25T00:26:45;3.78;;;1.83;;
34505;SDS011;20748;42.632;23.198;2023-04-25T00:29:17;3.10;;;2.13;;
34505;SDS011;20748;42.632;23.198;2023-04-25T00:31:49;5.30;;;2.83;;
34505;SDS011;20748;42.632;23.198;2023-04-25T00:34:22;4.30;;;2.13;;
34505;SDS011;20748;42.632;23.198;2023-04-25T00:36:54;3.85;;;1.65;;
34505;SDS011;20748;42.632;23.198;2023-04-25T00:39:28;4.47;;;2.10;;
34505;SDS011;20748;42.632;23.198;2023-04-25T00:42:01;6.05;;;2.53;;
34505;SDS011;20748;42.632;23.198;2023-04-25T00:44:35;3.78;;;1.80;;
34505;SDS011;20748;42.632;23.198;2023-04-25T00:47:07;3.72;;;1.77;;
34505;SDS011;20748;42.632;23.198;2023-04-25T00:49:40;2.55;;;1.10;;
34505;SDS011;20748;42.632;23.198;2023-04-25T00:52:13;1.30;;;0.85;;
34505;SDS011;20748;42.632;23.198;2023-04-25T00:54:46;2.00;;;0.95;;
34505;SDS011;20748;42.632;23.198;2023-04-25T00:57:19;1.67;;;0.80;;
34505;SDS011;20748;42.632;23.198;2023-04-25T00:59:51;1.42;;;0.82;;
34505;SDS011;20748;42.632;23.198;2023-04-25T01:02:26;1.48;;;0.90;;
34505;SDS011;20748;42.632;23.198;2023-04-25T01:04:59;1.98;;;0.80;;
34505;SDS011;20748;42.632;23.198;2023-04-25T01:07:31;1.40;;;0.70;;
34505;SDS011;20748;42.632;23.198;2023-04-25T01:10:04;1.38;;;0.77;;
34505;SDS011;20748;42.632;23.198;2023-04-25T01:12:38;2.80;;;1.15;;
34505;SDS011;20748;42.632;23.198;2023-04-25T01:15:11;1.95;;;1.15;;
34505;SDS011;20748;42.632;23.198;2023-04-25T01:17:43;1.95;;;1.08;;
34505;SDS011;20748;42.632;23.198;2023-04-25T01:20:16;2.40;;;1.00;;
34505;SDS011;20748;42.632;23.198;2023-04-25T01:22:49;1.55;;;0.95;;
34505;SDS011;20748;42.632;23.198;2023-04-25T01:25:22;3.22;;;1.33;;
34505;SDS011;20748;42.632;23.198;2023-04-25T01:27:55;2.00;;;1.25;;
34505;SDS011;20748;42.632;23.198;2023-04-25T01:30:28;2.65;;;1.33;;
34505;SDS011;20748;42.632;23.198;2023-04-25T01:33:01;2.78;;;1.70;;
34505;SDS011;20748;42.632;23.198;2023-04-25T01:35:35;2.45;;;1.05;;
34505;SDS011;20748;42.632;23.198;2023-04-25T01:38:08;4.15;;;1.67;;
34505;SDS011;20748;42.632;23.198;2023-04-25T01:40:41;3.55;;;1.67;;
34505;SDS011;20748;42.632;23.198;2023-04-25T01:43:16;2.40;;;1.42;;
34505;SDS011;20748;42.632;23.198;2023-04-25T01:45:49;4.47;;;2.05;;
34505;SDS011;20748;42.632;23.198;2023-04-25T01:48:22;3.70;;;2.40;;
34505;SDS011;20748;42.632;23.198;2023-04-25T01:50:54;4.20;;;1.88;;
34505;SDS011;20748;42.632;23.198;2023-04-25T01:53:27;4.93;;;2.65;;
34505;SDS011;20748;42.632;23.198;2023-04-25T01:55:59;4.75;;;2.70;;
34505;SDS011;20748;42.632;23.198;2023-04-25T01:58:37;6.00;;;2.47;;
34505;SDS011;20748;42.632;23.198;2023-04-25T02:01:25;5.30;;;2.90;;
34505;SDS011;20748;42.632;23.198;2023-04-25T02:04:15;4.53;;;2.50;;
34505;SDS011;20748;42.632;23.198;2023-04-25T02:06:49;9.15;;;3.10;;
34505;SDS011;20748;42.632;23.198;2023-04-25T02:09:22;6.25;;;3.08;;
34505;SDS011;20748;42.632;23.198;2023-04-25T02:11:59;5.05;;;3.03;;
34505;SDS011;20748;42.632;23.198;2023-04-25T02:14:38;5.50;;;2.70;;
34505;SDS011;20748;42.632;23.198;2023-04-25T02:17:26;6.57;;;3.70;;
34505;SDS011;20748;42.632;23.198;2023-04-25T02:19:58;5.63;;;2.88;;
34505;SDS011;20748;42.632;23.198;2023-04-25T02:22:31;5.28;;;2.97;;
34505;SDS011;20748;42.632;23.198;2023-04-25T02:25:06;5.93;;;3.42;;
34505;SDS011;20748;42.632;23.198;2023-04-25T02:27:40;5.85;;;3.60;;
34505;SDS011;20748;42.632;23.198;2023-04-25T02:30:13;6.20;;;3.35;;
34505;SDS011;20748;42.632;23.198;2023-04-25T02:32:46;4.90;;;2.80;;
34505;SDS011;20748;42.632;23.198;2023-04-25T02:35:18;9.68;;;3.72;;
34505;SDS011;20748;42.632;23.198;2023-04-25T02:37:51;5.85;;;3.17;;
34505;SDS011;20748;42.632;23.198;2023-04-25T02:40:24;6.38;;;3.55;;
34505;SDS011;20748;42.632;23.198;2023-04-25T02:42:59;6.22;;;3.90;;
34505;SDS011;20748;42.632;23.198;2023-04-25T02:45:31;7.70;;;3.80;;
34505;SDS011;20748;42.632;23.198;2023-04-25T02:48:04;6.50;;;3.85;;
34505;SDS011;20748;42.632;23.198;2023-04-25T02:50:37;8.55;;;4.20;;
34505;SDS011;20748;42.632;23.198;2023-04-25T02:53:09;5.43;;;3.03;;
34505;SDS011;20748;42.632;23.198;2023-04-25T02:55:49;7.10;;;3.45;;
34505;SDS011;20748;42.632;23.198;2023-04-25T02:58:24;4.25;;;2.58;;
34505;SDS011;20748;42.632;23.198;2023-04-25T03:00:58;5.85;;;2.92;;
34505;SDS011;20748;42.632;23.198;2023-04-25T03:03:30;5.97;;;3.35;;
34505;SDS011;20748;42.632;23.198;2023-04-25T03:06:03;6.07;;;3.67;;
34505;SDS011;20748;42.632;23.198;2023-04-25T03:08:37;6.03;;;3.08;;
34505;SDS011;20748;42.632;23.198;2023-04-25T03:11:10;5.95;;;3.05;;
34505;SDS011;20748;42.632;23.198;2023-04-25T03:13:43;6.00;;;3.42;;
34505;SDS011;20748;42.632;23.198;2023-04-25T03:16:16;6.43;;;3.55;;
34505;SDS011;20748;42.632;23.198;2023-04-25T03:18:49;6.97;;;3.38;;
34505;SDS011;20748;42.632;23.198;2023-04-25T03:21:22;7.15;;;3.70;;
34505;SDS011;20748;42.632;23.198;2023-04-25T03:23:56;6.57;;;3.78;;
34505;SDS011;20748;42.632;23.198;2023-04-25T03:26:29;9.43;;;4.45;;
34505;SDS011;20748;42.632;23.198;2023-04-25T03:29:01;6.97;;;4.10;;
34505;SDS011;20748;42.632;23.198;2023-04-25T03:31:34;5.63;;;3.60;;
34505;SDS011;20748;42.632;23.198;2023-04-25T03:34:07;5.75;;;3.42;;
34505;SDS011;20748;42.632;23.198;2023-04-25T03:36:39;9.63;;;4.65;;
34505;SDS011;20748;42.632;23.198;2023-04-25T03:39:13;7.40;;;3.42;;
34505;SDS011;20748;42.632;23.198;2023-04-25T03:41:51;7.70;;;4.30;;
34505;SDS011;20748;42.632;23.198;2023-04-25T03:44:24;6.32;;;3.65;;
34505;SDS011;20748;42.632;23.198;2023-04-25T03:46:57;5.88;;;3.15;;
34505;SDS011;20748;42.632;23.198;2023-04-25T03:49:29;6.80;;;3.30;;
34505;SDS011;20748;42.632;23.198;2023-04-25T03:52:06;5.63;;;3.38;;
34505;SDS011;20748;42.632;23.198;2023-04-25T03:54:42;6.05;;;3.28;;
34505;SDS011;20748;42.632;23.198;2023-04-25T03:57:19;9.45;;;3.28;;
34505;SDS011;20748;42.632;23.198;2023-04-25T03:59:52;6.82;;;3.47;;
34505;SDS011;20748;42.632;23.198;2023-04-25T04:02:24;5.97;;;3.60;;
34505;SDS011;20748;42.632;23.198;2023-04-25T04:04:58;6.53;;;2.85;;
34505;SDS011;20748;42.632;23.198;2023-04-25T04:07:31;6.32;;;3.33;;
34505;SDS011;20748;42.632;23.198;2023-04-25T04:10:06;6.75;;;3.45;;
34505;SDS011;20748;42.632;23.198;2023-04-25T04:12:42;5.15;;;3.05;;
34505;SDS011;20748;42.632;23.198;2023-04-25T04:15:14;5.82;;;3.20;;
34505;SDS011;20748;42.632;23.198;2023-04-25T04:17:49;5.30;;;2.92;;
34505;SDS011;20748;42.632;23.198;2023-04-25T04:20:23;4.88;;;3.03;;
34505;SDS011;20748;42.632;23.198;2023-04-25T04:22:55;5.13;;;3.00;;
34505;SDS011;20748;42.632;23.198;2023-04-25T04:25:28;6.10;;;3.30;;
34505;SDS011;20748;42.632;23.198;2023-04-25T04:28:13;8.05;;;3.25;;
34505;SDS011;20748;42.632;23.198;2023-04-25T04:31:05;6.25;;;3.70;;
34505;SDS011;20748;42.632;23.198;2023-04-25T04:33:39;5.78;;;3.42;;
34505;SDS011;20748;42.632;23.198;2023-04-25T04:36:12;3.63;;;2.35;;
34505;SDS011;20748;42.632;23.198;2023-04-25T04:38:45;5.45;;;3.05;;
34505;SDS011;20748;42.632;23.198;2023-04-25T04:41:26;5.82;;;3.25;;
34505;SDS011;20748;42.632;23.198;2023-04-25T04:44:13;4.93;;;2.80;;
34505;SDS011;20748;42.632;23.198;2023-04-25T04:47:04;6.10;;;2.70;;
34505;SDS011;20748;42.632;23.198;2023-04-25T04:49:57;4.43;;;2.47;;
34505;SDS011;20748;42.632;23.198;2023-04-25T04:52:49;5.35;;;2.60;;
34505;SDS011;20748;42.632;23.198;2023-04-25T04:55:48;2.47;;;1.52;;
34505;SDS011;20748;42.632;23.198;2023-04-25T04:58:47;5.70;;;3.15;;
34505;SDS011;20748;42.632;23.198;2023-04-25T05:01:26;9.20;;;3.75;;
34505;SDS011;20748;42.632;23.198;2023-04-25T05:04:10;6.15;;;3.10;;
34505;SDS011;20748;42.632;23.198;2023-04-25T05:06:46;5.75;;;2.35;;
34505;SDS011;20748;42.632;23.198;2023-04-25T05:09:20;3.10;;;2.33;;
34505;SDS011;20748;42.632;23.198;2023-04-25T05:12:19;3.42;;;1.88;;
34505;SDS011;20748;42.632;23.198;2023-04-25T05:15:12;3.53;;;2.25;;
34505;SDS011;20748;42.632;23.198;2023-04-25T05:17:45;4.22;;;2.50;;
34505;SDS011;20748;42.632;23.198;2023-04-25T05:20:40;4.72;;;2.88;;
34505;SDS011;20748;42.632;23.198;2023-04-25T05:23:16;7.70;;;3.45;;
34505;SDS011;20748;42.632;23.198;2023-04-25T05:26:24;2.95;;;1.63;;
34505;SDS011;20748;42.632;23.198;2023-04-25T05:29:01;7.25;;;2.08;;
34505;SDS011;20748;42.632;23.198;2023-04-25T05:31:42;2.47;;;1.58;;
34505;SDS011;20748;42.632;23.198;2023-04-25T05:34:20;2.60;;;1.63;;
34505;SDS011;20748;42.632;23.198;2023-04-25T05:37:00;3.08;;;1.90;;
34505;SDS011;20748;42.632;23.198;2023-04-25T05:39:36;4.80;;;2.20;;
34505;SDS011;20748;42.632;23.198;2023-04-25T05:42:34;5.07;;;1.95;;
34505;SDS011;20748;42.632;23.198;2023-04-25T05:45:27;4.40;;;2.97;;
34505;SDS011;20748;42.632;23.198;2023-04-25T05:48:08;4.30;;;2.30;;
34505;SDS011;20748;42.632;23.198;2023-04-25T05:51:08;5.63;;;2.92;;
34505;SDS011;20748;42.632;23.198;2023-04-25T05:54:04;4.72;;;2.92;;
34505;SDS011;20748;42.632;23.198;2023-04-25T05:56:38;4.65;;;2.67;;
34505;SDS011;20748;42.632;23.198;2023-04-25T05:59:10;5.43;;;3.10;;
34505;SDS011;20748;42.632;23.198;2023-04-25T06:01:43;4.18;;;2.63;;
34505;SDS011;20748;42.632;23.198;2023-04-25T06:04:15;5.63;;;3.30;;
34505;SDS011;20748;42.632;23.198;2023-04-25T06:06:49;5.03;;;2.75;;
34505;SDS011;20748;42.632;23.198;2023-04-25T06:09:21;5.78;;;2.75;;
34505;SDS011;20748;42.632;23.198;2023-04-25T06:11:54;6.20;;;3.00;;
34505;SDS011;20748;42.632;23.198;2023-04-25T06:14:27;5.57;;;2.55;;
34505;SDS011;20748;42.632;23.198;2023-04-25T06:17:01;4.70;;;2.85;;
34505;SDS011;20748;42.632;23.198;2023-04-25T06:19:37;3.67;;;1.98;;
34505;SDS011;20748;42.632;23.198;2023-04-25T06:22:10;3.83;;;1.90;;
34505;SDS011;20748;42.632;23.198;2023-04-25T06:24:45;2.53;;;1.83;;
34505;SDS011;20748;42.632;23.198;2023-04-25T06:27:18;3.53;;;2.00;;
34505;SDS011;20748;42.632;23.198;2023-04-25T06:29:51;5.65;;;2.08;;
34505;SDS011;20748;42.632;23.198;2023-04-25T06:32:23;4.95;;;2.70;;
34505;SDS011;20748;42.632;23.198;2023-04-25T06:34:59;3.55;;;2.33;;
34505;SDS011;20748;42.632;23.198;2023-04-25T06:37:32;3.65;;;2.22;;
34505;SDS011;20748;42.632;23.198;2023-04-25T06:40:07;6.10;;;2.55;;
34505;SDS011;20748;42.632;23.198;2023-04-25T06:42:40;3.60;;;2.15;;
34505;SDS011;20748;42.632;23.198;2023-04-25T06:45:43;3.60;;;2.10;;
34505;SDS011;20748;42.632;23.198;2023-04-25T06:48:19;4.13;;;2.45;;
34505;SDS011;20748;42.632;23.198;2023-04-25T06:50:52;6.25;;;3.40;;
34505;SDS011;20748;42.632;23.198;2023-04-25T06:53:25;4.70;;;2.45;;
34505;SDS011;20748;42.632;23.198;2023-04-25T06:58:54;3.63;;;1.95;;
34505;SDS011;20748;42.632;23.198;2023-04-25T07:01:39;3.25;;;1.92;;
34505;SDS011;20748;42.632;23.198;2023-04-25T07:04:18;4.55;;;2.25;;
34505;SDS011;20748;42.632;23.198;2023-04-25T07:06:59;3.67;;;2.53;;
34505;SDS011;20748;42.632;23.198;2023-04-25T07:09:40;4.43;;;2.17;;
34505;SDS011;20748;42.632;23.198;2023-04-25T07:12:12;6.57;;;2.38;;
34505;SDS011;20748;42.632;23.198;2023-04-25T07:14:45;4.57;;;2.47;;
34505;SDS011;20748;42.632;23.198;2023-04-25T07:17:17;3.35;;;1.98;;
34505;SDS011;20748;42.632;23.198;2023-04-25T07:19:50;4.22;;;2.88;;
34505;SDS011;20748;42.632;23.198;2023-04-25T07:22:23;5.03;;;2.33;;
34505;SDS011;20748;42.632;23.198;2023-04-25T07:24:56;5.70;;;1.98;;
34505;SDS011;20748;42.632;23.198;2023-04-25T07:27:30;4.70;;;2.58;;
34505;SDS011;20748;42.632;23.198;2023-04-25T07:30:09;4.47;;;2.30;;
34505;SDS011;20748;42.632;23.198;2023-04-25T07:32:43;5.22;;;2.15;;
34505;SDS011;20748;42.632;23.198;2023-04-25T07:35:17;2.05;;;1.73;;
34505;SDS011;20748;42.632;23.198;2023-04-25T07:37:49;2.78;;;1.52;;
34505;SDS011;20748;42.632;23.198;2023-04-25T07:40:25;3.38;;;2.20;;
34505;SDS011;20748;42.632;23.198;2023-04-25T07:43:02;5.63;;;2.00;;
34505;SDS011;20748;42.632;23.198;2023-04-25T07:45:44;3.17;;;1.77;;
34505;SDS011;20748;42.632;23.198;2023-04-25T07:48:18;3.83;;;2.53;;
34505;SDS011;20748;42.632;23.198;2023-04-25T07:50:52;2.53;;;1.60;;
34505;SDS011;20748;42.632;23.198;2023-04-25T07:53:24;4.15;;;2.03;;
34505;SDS011;20748;42.632;23.198;2023-04-25T07:56:03;3.65;;;1.85;;
34505;SDS011;20748;42.632;23.198;2023-04-25T07:58:38;4.70;;;2.10;;
34505;SDS011;20748;42.632;23.198;2023-04-25T08:01:14;3.53;;;1.75;;
34505;SDS011;20748;42.632;23.198;2023-04-25T08:03:56;3.10;;;1.42;;
34505;SDS011;20748;42.632;23.198;2023-04-25T08:06:39;3.70;;;1.17;;
34505;SDS011;20748;42.632;23.198;2023-04-25T08:09:17;1.88;;;1.40;;
34505;SDS011;20748;42.632;23.198;2023-04-25T08:11:51;1.48;;;0.90;;
34505;SDS011;20748;42.632;23.198;2023-04-25T08:14:30;2.83;;;1.40;;
34505;SDS011;20748;42.632;23.198;2023-04-25T08:17:08;2.33;;;1.35;;
34505;SDS011;20748;42.632;23.198;2023-04-25T08:19:45;3.20;;;2.22;;
34505;SDS011;20748;42.632;23.198;2023-04-25T08:22:28;2.42;;;1.20;;
34505;SDS011;20748;42.632;23.198;2023-04-25T08:25:22;2.15;;;0.93;;
34505;SDS011;20748;42.632;23.198;2023-04-25T08:27:55;2.08;;;0.93;;
34505;SDS011;20748;42.632;23.198;2023-04-25T08:30:28;1.88;;;1.05;;
34505;SDS011;20748;42.632;23.198;2023-04-25T08:33:01;2.25;;;1.42;;
34505;SDS011;20748;42.632;23.198;2023-04-25T08:36:02;2.50;;;1.15;;
34505;SDS011;20748;42.632;23.198;2023-04-25T08:38:36;4.70;;;1.10;;
34505;SDS011;20748;42.632;23.198;2023-04-25T08:41:12;2.53;;;1.35;;
34505;SDS011;20748;42.632;23.198;2023-04-25T08:43:47;1.20;;;0.73;;
34505;SDS011;20748;42.632;23.198;2023-04-25T08:46:20;1.73;;;0.90;;
34505;SDS011;20748;42.632;23.198;2023-04-25T08:49:13;4.55;;;1.30;;
34505;SDS011;20748;42.632;23.198;2023-04-25T08:51:46;1.67;;;0.70;;
34505;SDS011;20748;42.632;23.198;2023-04-25T08:54:21;1.63;;;0.80;;
34505;SDS011;20748;42.632;23.198;2023-04-25T08:57:08;1.00;;;0.70;;
34505;SDS011;20748;42.632;23.198;2023-04-25T08:59:41;1.02;;;0.68;;
34505;SDS011;20748;42.632;23.198;2023-04-25T09:02:17;2.83;;;1.20;;
34505;SDS011;20748;42.632;23.198;2023-04-25T09:04:54;1.42;;;0.85;;
34505;SDS011;20748;42.632;23.198;2023-04-25T09:07:27;1.02;;;0.88;;
34505;SDS011;20748;42.632;23.198;2023-04-25T09:10:00;1.38;;;0.93;;
34505;SDS011;20748;42.632;23.198;2023-04-25T09:12:38;2.35;;;1.35;;
34505;SDS011;20748;42.632;23.198;2023-04-25T09:15:13;1.95;;;1.10;;
34505;SDS011;20748;42.632;23.198;2023-04-25T09:18:21;1.02;;;0.63;;
34505;SDS011;20748;42.632;23.198;2023-04-25T09:21:04;3.92;;;1.60;;
34505;SDS011;20748;42.632;23.198;2023-04-25T09:23:47;4.03;;;2.28;;
34505;SDS011;20748;42.632;23.198;2023-04-25T09:26:21;2.88;;;1.00;;
34505;SDS011;20748;42.632;23.198;2023-04-25T09:29:04;2.20;;;1.10;;
34505;SDS011;20748;42.632;23.198;2023-04-25T09:31:40;0.95;;;0.47;;
34505;SDS011;20748;42.632;23.198;2023-04-25T09:34:15;1.58;;;0.80;;
34505;SDS011;20748;42.632;23.198;2023-04-25T09:39:48;1.27;;;0.68;;
34505;SDS011;20748;42.632;23.198;2023-04-25T09:42:22;1.17;;;0.80;;
34505;SDS011;20748;42.632;23.198;2023-04-25T09:44:56;3.03;;;1.40;;
34505;SDS011;20748;42.632;23.198;2023-04-25T09:47:30;1.38;;;0.60;;
34505;SDS011;20748;42.632;23.198;2023-04-25T09:50:15;1.65;;;0.88;;
34505;SDS011;20748;42.632;23.198;2023-04-25T09:53:02;1.50;;;0.60;;
34505;SDS011;20748;42.632;23.198;2023-04-25T09:55:39;1.77;;;0.43;;
34505;SDS011;20748;42.632;23.198;2023-04-25T09:58:14;2.63;;;0.50;;
34505;SDS011;20748;42.632;23.198;2023-04-25T10:00:47;1.65;;;0.50;;
34505;SDS011;20748;42.632;23.198;2023-04-25T10:03:33;1.35;;;0.82;;
34505;SDS011;20748;42.632;23.198;2023-04-25T10:06:21;0.95;;;0.55;;
34505;SDS011;20748;42.632;23.198;2023-04-25T10:08:55;2.45;;;0.60;;
34505;SDS011;20748;42.632;23.198;2023-04-25T10:11:28;0.85;;;0.60;;
34505;SDS011;20748;42.632;23.198;2023-04-25T10:14:03;0.77;;;0.38;;
34505;SDS011;20748;42.632;23.198;2023-04-25T10:16:36;0.90;;;0.40;;
34505;SDS011;20748;42.632;23.198;2023-04-25T10:19:10;0.75;;;0.45;;
34505;SDS011;20748;42.632;23.198;2023-04-25T10:21:46;1.85;;;0.60;;
34505;SDS011;20748;42.632;23.198;2023-04-25T10:24:23;1.05;;;0.52;;
34505;SDS011;20748;42.632;23.198;2023-04-25T10:26:56;1.88;;;0.63;;
34505;SDS011;20748;42.632;23.198;2023-04-25T10:29:29;0.30;;;0.30;;
34505;SDS011;20748;42.632;23.198;2023-04-25T10:32:01;0.82;;;0.65;;
34505;SDS011;20748;42.632;23.198;2023-04-25T10:34:38;1.08;;;0.50;;
34505;SDS011;20748;42.632;23.198;2023-04-25T10:37:12;0.57;;;0.47;;
34505;SDS011;20748;42.632;23.198;2023-04-25T10:39:45;0.95;;;0.40;;
34505;SDS011;20748;42.632;23.198;2023-04-25T10:42:18;0.50;;;0.40;;
34505;SDS011;20748;42.632;23.198;2023-04-25T10:45:00;1.23;;;0.60;;
34505;SDS011;20748;42.632;23.198;2023-04-25T10:47:35;1.13;;;0.40;;
34505;SDS011;20748;42.632;23.198;2023-04-25T10:50:09;5.45;;;1.70;;
34505;SDS011;20748;42.632;23.198;2023-04-25T10:52:41;2.75;;;0.60;;
34505;SDS011;20748;42.632;23.198;2023-04-25T10:55:14;5.05;;;1.73;;
34505;SDS011;20748;42.632;23.198;2023-04-25T10:57:47;2.95;;;1.13;;
34505;SDS011;20748;42.632;23.198;2023-04-25T11:00:21;5.57;;;1.42;;
34505;SDS011;20748;42.632;23.198;2023-04-25T11:03:15;2.63;;;0.98;;
34505;SDS011;20748;42.632;23.198;2023-04-25T11:05:49;4.93;;;2.15;;
34505;SDS011;20748;42.632;23.198;2023-04-25T11:08:32;2.67;;;0.80;;
34505;SDS011;20748;42.632;23.198;2023-04-25T11:11:19;11.10;;;0.80;;
34505;SDS011;20748;42.632;23.198;2023-04-25T11:13:52;1.25;;;0.63;;
34505;SDS011;20748;42.632;23.198;2023-04-25T11:16:24;2.33;;;0.55;;
34505;SDS011;20748;42.632;23.198;2023-04-25T11:18:59;4.72;;;0.63;;
34505;SDS011;20748;42.632;23.198;2023-04-25T11:21:33;1.27;;;0.50;;
34505;SDS011;20748;42.632;23.198;2023-04-25T11:24:05;0.95;;;0.50;;
34505;SDS011;20748;42.632;23.198;2023-04-25T11:26:38;3.75;;;1.20;;
34505;SDS011;20748;42.632;23.198;2023-04-25T11:29:12;1.33;;;0.57;;
34505;SDS011;20748;42.632;23.198;2023-04-25T11:31:45;2.55;;;1.10;;
34505;SDS011;20748;42.632;23.198;2023-04-25T11:34:18;1.67;;;0.80;;
34505;SDS011;20748;42.632;23.198;2023-04-25T11:36:51;3.70;;;1.50;;
34505;SDS011;20748;42.632;23.198;2023-04-25T11:39:24;0.93;;;0.70;;
34505;SDS011;20748;42.632;23.198;2023-04-25T11:41:57;3.53;;;1.00;;
34505;SDS011;20748;42.632;23.198;2023-04-25T11:44:32;1.88;;;0.82;;
34505;SDS011;20748;42.632;23.198;2023-04-25T11:47:04;6.15;;;2.63;;
34505;SDS011;20748;42.632;23.198;2023-04-25T11:49:37;3.00;;;1.10;;
34505;SDS011;20748;42.632;23.198;2023-04-25T11:52:10;4.75;;;1.23;;
34505;SDS011;20748;42.632;23.198;2023-04-25T11:54:43;5.07;;;2.15;;
34505;SDS011;20748;42.632;23.198;2023-04-25T11:57:18;1.65;;;0.85;;
34505;SDS011;20748;42.632;23.198;2023-04-25T11:59:51;0.60;;;0.35;;
34505;SDS011;20748;42.632;23.198;2023-04-25T12:02:24;0.95;;;0.47;;
34505;SDS011;20748;42.632;23.198;2023-04-25T12:04:58;0.55;;;0.47;;
34505;SDS011;20748;42.632;23.198;2023-04-25T12:07:51;0.47;;;0.43;;
34505;SDS011;20748;42.632;23.198;2023-04-25T12:10:24;1.05;;;0.63;;
34505;SDS011;20748;42.632;23.198;2023-04-25T12:12:57;1.40;;;0.60;;
34505;SDS011;20748;42.632;23.198;2023-04-25T12:15:29;1.13;;;0.73;;
34505;SDS011;20748;42.632;23.198;2023-04-25T12:18:05;2.47;;;0.52;;
34505;SDS011;20748;42.632;23.198;2023-04-25T12:20:38;0.35;;;0.30;;
34505;SDS011;20748;42.632;23.198;2023-04-25T12:23:11;1.15;;;0.60;;
34505;SDS011;20748;42.632;23.198;2023-04-25T12:25:44;0.93;;;0.57;;
34505;SDS011;20748;42.632;23.198;2023-04-25T12:28:19;1.50;;;0.75;;
34505;SDS011;20748;42.632;23.198;2023-04-25T12:30:53;1.45;;;1.00;;
34505;SDS011;20748;42.632;23.198;2023-04-25T12:33:30;1.35;;;0.80;;
34505;SDS011;20748;42.632;23.198;2023-04-25T12:36:04;1.63;;;0.93;;
34505;SDS011;20748;42.632;23.198;2023-04-25T12:46:18;0.50;;;0.50;;
34505;SDS011;20748;42.632;23.198;2023-04-25T12:48:51;2.05;;;0.80;;
34505;SDS011;20748;42.632;23.198;2023-04-25T12:51:23;2.33;;;0.40;;
34505;SDS011;20748;42.632;23.198;2023-04-25T12:53:57;3.85;;;1.10;;
34505;SDS011;20748;42.632;23.198;2023-04-25T12:56:29;1.20;;;0.63;;
34505;SDS011;20748;42.632;23.198;2023-04-25T12:59:02;0.93;;;0.43;;
34505;SDS011;20748;42.632;23.198;2023-04-25T13:01:35;0.85;;;0.60;;
34505;SDS011;20748;42.632;23.198;2023-04-25T13:04:08;1.10;;;0.60;;
34505;SDS011;20748;42.632;23.198;2023-04-25T13:06:40;0.98;;;0.70;;
34505;SDS011;20748;42.632;23.198;2023-04-25T13:09:13;1.70;;;0.90;;
34505;SDS011;20748;42.632;23.198;2023-04-25T13:11:46;1.15;;;0.60;;
34505;SDS011;20748;42.632;23.198;2023-04-25T13:14:19;1.92;;;1.05;;
34505;SDS011;20748;42.632;23.198;2023-04-25T13:16:52;1.95;;;0.80;;
34505;SDS011;20748;42.632;23.198;2023-04-25T13:19:25;1.95;;;0.65;;
34505;SDS011;20748;42.632;23.198;2023-04-25T13:21:57;0.55;;;0.52;;
34505;SDS011;20748;42.632;23.198;2023-04-25T13:24:30;1.02;;;0.55;;
34505;SDS011;20748;42.632;23.198;2023-04-25T13:27:03;4.10;;;0.85;;
34505;SDS011;20748;42.632;23.198;2023-04-25T13:29:35;4.28;;;0.90;;
34505;SDS011;20748;42.632;23.198;2023-04-25T13:32:10;2.97;;;1.40;;
34505;SDS011;20748;42.632;23.198;2023-04-25T13:34:42;1.55;;;0.88;;
34505;SDS011;20748;42.632;23.198;2023-04-25T13:37:15;6.45;;;4.47;;
34505;SDS011;20748;42.632;23.198;2023-04-25T13:39:47;3.33;;;1.55;;
34505;SDS011;20748;42.632;23.198;2023-04-25T13:42:19;4.10;;;1.73;;
34505;SDS011;20748;42.632;23.198;2023-04-25T13:44:52;6.15;;;2.00;;
34505;SDS011;20748;42.632;23.198;2023-04-25T13:47:25;4.22;;;2.22;;
34505;SDS011;20748;42.632;23.198;2023-04-25T13:49:58;3.13;;;1.48;;
34505;SDS011;20748;42.632;23.198;2023-04-25T13:52:34;5.13;;;2.38;;
34505;SDS011;20748;42.632;23.198;2023-04-25T13:55:07;6.85;;;2.08;;
34505;SDS011;20748;42.632;23.198;2023-04-25T13:57:40;4.05;;;2.00;;
34505;SDS011;20748;42.632;23.198;2023-04-25T14:00:13;2.95;;;1.42;;
34505;SDS011;20748;42.632;23.198;2023-04-25T14:02:47;2.22;;;0.90;;
34505;SDS011;20748;42.632;23.198;2023-04-25T14:05:21;1.15;;;0.60;;
34505;SDS011;20748;42.632;23.198;2023-04-25T14:07:54;1.00;;;0.75;;
34505;SDS011;20748;42.632;23.198;2023-04-25T14:10:26;1.42;;;0.80;;
34505;SDS011;20748;42.632;23.198;2023-04-25T14:12:59;2.25;;;1.02;;
34505;SDS011;20748;42.632;23.198;2023-04-25T14:15:32;2.72;;;1.70;;
34505;SDS011;20748;42.632;23.198;2023-04-25T14:18:05;0.98;;;0.57;;
34505;SDS011;20748;42.632;23.198;2023-04-25T14:20:38;0.80;;;0.60;;
34505;SDS011;20748;42.632;23.198;2023-04-25T14:23:10;14.27;;;9.05;;
34505;SDS011;20748;42.632;23.198;2023-04-25T14:25:43;2.17;;;1.60;;
34505;SDS011;20748;42.632;23.198;2023-04-25T14:28:15;1.83;;;0.75;;
34505;SDS011;20748;42.632;23.198;2023-04-25T14:30:48;2.28;;;0.93;;
34505;SDS011;20748;42.632;23.198;2023-04-25T14:33:21;3.15;;;1.30;;
34505;SDS011;20748;42.632;23.198;2023-04-25T14:35:55;1.90;;;1.02;;
34505;SDS011;20748;42.632;23.198;2023-04-25T14:38:27;4.32;;;1.73;;
34505;SDS011;20748;42.632;23.198;2023-04-25T14:40:59;2.78;;;1.60;;
34505;SDS011;20748;42.632;23.198;2023-04-25T14:43:32;1.63;;;0.82;;
34505;SDS011;20748;42.632;23.198;2023-04-25T14:46:04;1.83;;;0.82;;
34505;SDS011;20748;42.632;23.198;2023-04-25T14:48:38;1.77;;;1.00;;
34505;SDS011;20748;42.632;23.198;2023-04-25T14:51:11;0.68;;;0.60;;
34505;SDS011;20748;42.632;23.198;2023-04-25T14:53:43;2.58;;;1.17;;
34505;SDS011;20748;42.632;23.198;2023-04-25T14:56:15;2.47;;;1.13;;
34505;SDS011;20748;42.632;23.198;2023-04-25T14:58:48;3.10;;;2.10;;
34505;SDS011;20748;42.632;23.198;2023-04-25T15:01:21;2.95;;;1.40;;
34505;SDS011;20748;42.632;23.198;2023-04-25T15:03:55;1.58;;;0.88;;
34505;SDS011;20748;42.632;23.198;2023-04-25T15:06:29;2.45;;;1.20;;
34505;SDS011;20748;42.632;23.198;2023-04-25T15:09:02;4.25;;;1.05;;
34505;SDS011;20748;42.632;23.198;2023-04-25T15:11:35;2.45;;;1.23;;
34505;SDS011;20748;42.632;23.198;2023-04-25T15:14:07;5.28;;;1.58;;
34505;SDS011;20748;42.632;23.198;2023-04-25T15:16:40;1.35;;;0.82;;
34505;SDS011;20748;42.632;23.198;2023-04-25T15:19:13;1.48;;;0.82;;
34505;SDS011;20748;42.632;23.198;2023-04-25T15:21:46;4.72;;;1.13;;
34505;SDS011;20748;42.632;23.198;2023-04-25T15:24:18;4.25;;;1.73;;
34505;SDS011;20748;42.632;23.198;2023-04-25T15:26:51;2.03;;;1.30;;
34505;SDS011;20748;42.632;23.198;2023-04-25T15:29:23;5.13;;;2.67;;
34505;SDS011;20748;42.632;23.198;2023-04-25T15:31:57;2.17;;;0.70;;
34505;SDS011;20748;42.632;23.198;2023-04-25T15:34:30;1.65;;;1.00;;
34505;SDS011;20748;42.632;23.198;2023-04-25T15:37:03;1.83;;;1.05;;